Time;durP1;ratioP1;P1;durP2;ratioP2;P2;SDS_P1;SDS_P2;PMS_P1;PMS_P2;Temp;Humidity;BMP_temperature;BMP_pressure;BME280_temperature;BME280_humidity;BME280_pressure;Samples;Min_cycle;Max_cycle;Signal;HPM_P1;HPM_P2
2024/02/02 00:00:46;;;;;;;0.20;0.20;;;;;;;0.28;69.22;97344.16;4982918;28;20050;-62
2024/02/02 00:03:13;;;;;;;0.20;0.20;;;;;;;0.32;69.01;97340.53;4984793;28;20050;-63
2024/02/02 00:05:40;;;;;;;0.20;0.20;;;;;;;-0.13;69.32;97256.88;4984844;28;20136;-64
2024/02/02 00:08:07;;;;;;;0.20;0.20;;;;;;;0.46;68.32;97333.22;4984864;28;20054;-62
2024/02/02 00:10:35;;;;;;;0.20;0.20;;;;;;;0.56;67.46;97334.94;4984539;28;20429;-64
2024/02/02 00:13:02;;;;;;;0.20;0.20;;;;;;;0.47;68.03;97337.56;4985000;28;20062;-63
2024/02/02 00:15:28;;;;;;;0.20;0.20;;;;;;;0.57;66.80;97344.75;4982918;28;20058;-61
2024/02/02 00:17:56;;;;;;;0.20;0.20;;;;;;;0.55;67.43;97334.16;4984677;28;20059;-63
2024/02/02 00:20:22;;;;;;;0.20;0.20;;;;;;;0.39;68.40;97346.41;4984100;28;20468;-62
2024/02/02 00:22:49;;;;;;;0.20;0.20;;;;;;;-0.16;69.13;97276.53;4984755;28;20092;-64
2024/02/02 00:25:18;;;;;;;0.20;0.20;;;;;;;0.38;68.78;97344.78;4984331;28;20050;-64
2024/02/02 00:27:45;;;;;;;0.20;0.20;;;;;;;-0.10;72.31;97340.66;4977445;28;20047;-64
2024/02/02 00:30:12;;;;;;;0.20;0.20;;;;;;;-0.65;72.20;97259.84;4963573;28;20058;-62
2024/02/02 00:32:44;;;;;;;0.20;0.20;;;;;;;-0.15;72.24;97318.97;4964696;28;20437;-63
2024/02/02 00:35:14;;;;;;;0.20;0.20;;;;;;;0.09;71.83;97336.00;4964503;28;20518;-62
2024/02/02 00:37:43;;;;;;;0.20;0.20;;;;;;;-0.08;72.12;97324.84;4964960;28;20065;-63
2024/02/02 00:40:10;;;;;;;0.20;0.20;;;;;;;0.05;71.64;97329.53;4963501;28;20050;-64
2024/02/02 00:42:37;;;;;;;0.20;0.20;;;;;;;-0.08;71.72;97292.19;4964964;28;20568;-62
2024/02/02 00:45:05;;;;;;;0.20;0.20;;;;;;;-0.18;72.19;97300.50;4966489;28;20509;-63
2024/02/02 00:47:32;;;;;;;0.20;0.20;;;;;;;0.01;72.67;97333.97;4966961;28;20054;-63
2024/02/02 00:49:58;;;;;;;0.20;0.20;;;;;;;-0.20;73.46;97327.19;4968366;28;20073;-63
2024/02/02 00:52:26;;;;;;;0.20;0.20;;;;;;;-0.54;73.40;97245.00;4968569;28;20125;-64
2024/02/02 00:54:54;;;;;;;0.20;0.20;;;;;;;-0.11;73.89;97303.63;4968605;28;20836;-63
2024/02/02 00:57:20;;;;;;;0.20;0.20;;;;;;;0.00;72.95;97321.47;4968704;28;20066;-62
2024/02/02 00:59:50;;;;;;;0.20;0.20;;;;;;;0.00;73.50;97305.13;4968319;28;20063;-61
2024/02/02 01:02:17;;;;;;;0.20;0.20;;;;;;;0.16;73.08;97301.03;4968116;28;20062;-64
2024/02/02 01:04:44;;;;;;;0.20;0.20;;;;;;;0.11;72.81;97287.53;4968244;28;20058;-64
2024/02/02 01:07:15;;;;;;;0.20;0.20;;;;;;;0.14;72.76;97288.81;4980851;28;20587;-63
2024/02/02 01:09:43;;;;;;;0.20;0.20;;;;;;;0.20;73.23;97302.06;4987294;28;20057;-63
2024/02/02 01:12:10;;;;;;;0.20;0.20;;;;;;;0.21;74.14;97295.50;4987503;28;20049;-65
2024/02/02 01:14:38;;;;;;;0.20;0.20;;;;;;;0.43;73.31;97294.88;4985785;28;20054;-63
2024/02/02 01:17:06;;;;;;;0.20;0.20;;;;;;;0.18;74.95;97298.81;4986368;28;20149;-63
2024/02/02 01:19:36;;;;;;;0.20;0.20;;;;;;;-0.05;73.65;97220.81;4985516;28;20058;-64
2024/02/02 01:22:03;;;;;;;0.20;0.20;;;;;;;0.52;73.67;97282.97;4987447;28;20062;-63
2024/02/02 01:24:31;;;;;;;0.20;0.20;;;;;;;0.48;72.70;97262.88;4987365;28;20061;-62
2024/02/02 01:26:58;;;;;;;0.20;0.20;;;;;;;0.56;71.75;97262.19;4986899;28;20054;-63
2024/02/02 01:29:25;;;;;;;0.17;0.17;;;;;;;0.87;70.70;97282.28;4987174;28;20057;-64
2024/02/02 01:31:52;;;;;;;0.20;0.20;;;;;;;0.87;70.67;97290.47;4986923;28;20052;-63
2024/02/02 01:34:19;;;;;;;0.20;0.20;;;;;;;0.61;70.78;97288.53;4987529;28;20153;-62
2024/02/02 01:36:46;;;;;;;0.20;0.20;;;;;;;0.57;71.35;97299.22;4987107;28;20539;-62
2024/02/02 01:39:13;;;;;;;0.20;0.20;;;;;;;0.61;71.89;97267.56;4986659;28;20062;-62
2024/02/02 01:41:40;;;;;;;0.20;0.20;;;;;;;0.54;71.55;97244.53;4985592;28;20062;-60
2024/02/02 01:44:07;;;;;;;0.20;0.20;;;;;;;0.45;72.28;97225.34;4987233;28;20050;-61
2024/02/02 01:46:34;;;;;;;0.20;0.20;;;;;;;0.61;74.10;97262.09;4984257;28;20053;-64
2024/02/02 01:49:01;;;;;;;0.20;0.20;;;;;;;0.45;74.78;97230.78;4980090;28;20056;-63
2024/02/02 01:51:28;;;;;;;0.30;0.30;;;;;;;0.75;73.78;97256.66;4986679;28;20046;-64
2024/02/02 01:53:55;;;;;;;0.20;0.20;;;;;;;0.99;72.48;97285.34;4986795;28;20055;-63
2024/02/02 01:56:22;;;;;;;0.20;0.20;;;;;;;0.81;73.15;97267.16;4986309;28;20144;-63
2024/02/02 01:58:49;;;;;;;0.20;0.20;;;;;;;0.29;73.15;97194.03;4986825;28;20058;-65
2024/02/02 02:01:16;;;;;;;0.20;0.20;;;;;;;0.72;73.75;97236.25;4986653;28;20065;-63
2024/02/02 02:03:44;;;;;;;0.20;0.20;;;;;;;0.75;75.42;97234.84;4987044;28;20153;-62
2024/02/02 02:06:11;;;;;;;0.20;0.20;;;;;;;0.60;75.90;97181.44;4984993;28;20060;-62
2024/02/02 02:08:38;;;;;;;0.20;0.20;;;;;;;1.21;75.72;97260.88;4987131;28;20136;-62
2024/02/02 02:11:07;;;;;;;0.20;0.20;;;;;;;0.59;75.56;97166.19;4984774;28;20054;-63
2024/02/02 02:13:34;;;;;;;0.20;0.20;;;;;;;1.30;74.96;97269.13;4986245;28;20065;-62
2024/02/02 02:16:01;;;;;;;0.20;0.20;;;;;;;0.83;77.08;97270.38;4986444;28;20080;-61
2024/02/02 02:18:28;;;;;;;0.20;0.20;;;;;;;0.60;76.40;97233.22;4986553;28;20051;-62
2024/02/02 02:20:58;;;;;;;0.20;0.20;;;;;;;-1.94;75.02;96802.44;4985908;28;20437;-62
2024/02/02 02:23:26;;;;;;;0.20;0.20;;;;;;;0.35;77.24;97247.31;4985195;28;20092;-62
2024/02/02 02:25:52;;;;;;;0.20;0.20;;;;;;;0.50;76.94;97257.94;4985906;28;20056;-61
2024/02/02 02:28:19;;;;;;;0.20;0.20;;;;;;;0.69;76.73;97258.69;4977177;28;20398;-63
2024/02/02 02:30:46;;;;;;;0.20;0.20;;;;;;;-0.04;77.66;97189.75;4965151;28;20057;-62
2024/02/02 02:33:13;;;;;;;0.20;0.20;;;;;;;0.21;78.34;97273.72;4966543;28;20061;-63
2024/02/02 02:35:40;;;;;;;0.20;0.20;;;;;;;0.44;77.62;97278.22;4966574;28;20351;-61
2024/02/02 02:38:07;;;;;;;0.20;0.20;;;;;;;0.46;77.29;97265.09;4966423;28;20113;-61
2024/02/02 02:40:34;;;;;;;0.20;0.20;;;;;;;0.47;77.34;97277.63;4966099;28;20050;-63
2024/02/02 02:43:01;;;;;;;0.20;0.20;;;;;;;-0.53;77.33;97083.41;4966734;28;20059;-63
2024/02/02 02:45:28;;;;;;;0.20;0.20;;;;;;;-0.64;76.66;97060.19;4965861;28;20046;-64
2024/02/02 02:47:54;;;;;;;0.20;0.20;;;;;;;0.85;77.79;97284.53;4966725;28;20059;-63
2024/02/02 02:50:21;;;;;;;0.20;0.20;;;;;;;0.51;78.05;97270.44;4966169;28;20063;-63
2024/02/02 02:52:48;;;;;;;0.20;0.20;;;;;;;0.66;77.68;97275.63;4966751;28;20054;-63
2024/02/02 02:55:15;;;;;;;0.20;0.20;;;;;;;-0.37;77.22;97068.41;4965829;28;20108;-63
2024/02/02 02:57:42;;;;;;;0.20;0.20;;;;;;;0.93;77.43;97253.81;4966608;28;20050;-63
2024/02/02 03:00:09;;;;;;;0.20;0.20;;;;;;;0.48;78.72;97251.97;4965800;28;20050;-63
2024/02/02 03:02:36;;;;;;;0.20;0.20;;;;;;;0.27;79.12;97201.69;4966505;28;20109;-61
2024/02/02 03:05:04;;;;;;;0.20;0.20;;;;;;;0.85;78.49;97257.28;4966123;28;20090;-61
2024/02/02 03:07:30;;;;;;;0.20;0.20;;;;;;;0.96;78.19;97252.41;4965685;28;20051;-61
2024/02/02 03:09:57;;;;;;;0.20;0.20;;;;;;;0.92;77.92;97235.03;4965569;28;20055;-64
2024/02/02 03:12:24;;;;;;;0.20;0.20;;;;;;;1.19;78.41;97262.28;4965974;28;20059;-61
2024/02/02 03:14:51;;;;;;;0.20;0.20;;;;;;;1.32;76.57;97259.56;4964564;28;20058;-64
2024/02/02 03:17:18;;;;;;;0.20;0.20;;;;;;;0.85;76.74;97202.75;4965665;28;20047;-63
2024/02/02 03:19:44;;;;;;;0.30;0.30;;;;;;;0.19;78.70;97216.00;4965685;28;20070;-61
2024/02/02 03:22:11;;;;;;;0.20;0.20;;;;;;;0.43;79.46;97260.25;4965590;28;20050;-61
2024/02/02 03:24:38;;;;;;;0.20;0.20;;;;;;;0.58;79.58;97251.81;4964202;28;20444;-61
2024/02/02 03:27:05;;;;;;;0.20;0.20;;;;;;;0.79;80.14;97253.00;4965661;28;20142;-62
2024/02/02 03:29:32;;;;;;;0.20;0.20;;;;;;;0.32;80.50;97166.19;4984430;28;20165;-63
2024/02/02 03:31:59;;;;;;;0.20;0.20;;;;;;;1.28;79.14;97247.63;4985260;28;20141;-63
2024/02/02 03:34:26;;;;;;;0.20;0.20;;;;;;;1.21;79.17;97249.97;4984809;28;20112;-63
2024/02/02 03:36:53;;;;;;;0.20;0.20;;;;;;;0.73;80.37;97275.22;4983563;28;20543;-64
2024/02/02 03:39:20;;;;;;;0.20;0.20;;;;;;;0.58;79.19;97208.19;4985075;28;20058;-61
2024/02/02 03:41:47;;;;;;;0.20;0.20;;;;;;;1.01;78.94;97261.28;4983074;28;20058;-63
2024/02/02 03:44:14;;;;;;;0.20;0.20;;;;;;;1.09;78.56;97252.38;4984568;28;20059;-63
2024/02/02 03:46:40;;;;;;;0.20;0.20;;;;;;;1.03;77.89;97236.44;4984625;28;20060;-63
2024/02/02 03:49:07;;;;;;;0.20;0.20;;;;;;;1.26;78.24;97258.06;4983592;28;20089;-61
2024/02/02 03:51:34;;;;;;;0.20;0.20;;;;;;;0.79;77.81;97178.63;4984785;28;20065;-63
2024/02/02 03:54:01;;;;;;;0.20;0.20;;;;;;;-1.64;77.97;96772.88;4983115;28;20505;-61
2024/02/02 03:56:28;;;;;;;0.20;0.20;;;;;;;0.83;78.33;97172.25;4984643;28;20503;-63
2024/02/02 03:58:55;;;;;;;0.20;0.20;;;;;;;1.46;77.77;97260.31;4984788;28;20054;-63
2024/02/02 04:01:21;;;;;;;0.25;0.25;;;;;;;1.58;77.86;97269.91;4984769;28;20050;-63
2024/02/02 04:03:48;;;;;;;0.20;0.20;;;;;;;1.44;78.01;97281.66;4984588;28;20046;-63
2024/02/02 04:06:16;;;;;;;0.20;0.20;;;;;;;1.42;77.72;97278.41;4984773;28;20050;-61
2024/02/02 04:08:42;;;;;;;0.20;0.20;;;;;;;1.36;77.61;97290.56;4984724;28;20062;-62
2024/02/02 04:11:10;;;;;;;0.25;0.25;;;;;;;0.75;77.66;97181.13;4984394;28;20073;-64
2024/02/02 04:13:36;;;;;;;0.25;0.25;;;;;;;0.63;77.33;97161.78;4985084;28;20204;-61
2024/02/02 04:16:04;;;;;;;0.20;0.20;;;;;;;1.43;77.94;97280.03;4984168;28;20612;-61
2024/02/02 04:18:30;;;;;;;0.20;0.20;;;;;;;1.54;78.22;97278.72;4983952;28;20057;-60
2024/02/02 04:20:57;;;;;;;0.20;0.20;;;;;;;1.59;78.10;97310.53;4986595;28;20065;-63
2024/02/02 04:23:25;;;;;;;0.20;0.20;;;;;;;1.47;78.57;97296.63;4985758;28;20124;-62
2024/02/02 04:25:52;;;;;;;0.20;0.20;;;;;;;1.63;78.32;97294.38;4986923;28;20053;-63
2024/02/02 04:28:18;;;;;;;0.20;0.20;;;;;;;1.29;78.04;97265.63;4978546;28;20073;-64
2024/02/02 04:30:45;;;;;;;0.20;0.20;;;;;;;1.73;78.03;97283.19;4967407;28;20055;-64
2024/02/02 04:33:13;;;;;;;0.30;0.30;;;;;;;1.62;77.64;97259.97;4967808;28;20047;-61
2024/02/02 04:35:40;;;;;;;0.20;0.20;;;;;;;1.63;78.47;97284.22;4966213;28;20077;-63
2024/02/02 04:38:07;;;;;;;0.20;0.20;;;;;;;1.72;77.94;97287.06;4967216;28;20537;-63
2024/02/02 04:40:34;;;;;;;0.20;0.20;;;;;;;1.38;78.56;97285.59;4967130;28;20078;-62
2024/02/02 04:43:00;;;;;;;0.20;0.20;;;;;;;1.24;80.79;97305.81;4966002;28;20823;-61
2024/02/02 04:45:27;;;;;;;0.20;0.20;;;;;;;1.30;79.59;97275.41;4967207;28;20086;-64
2024/02/02 04:47:54;;;;;;;0.20;0.20;;;;;;;1.58;78.72;97303.47;4966532;28;20058;-63
2024/02/02 04:50:22;;;;;;;0.20;0.20;;;;;;;1.68;78.62;97310.59;4967425;28;20520;-63
2024/02/02 04:52:48;;;;;;;0.20;0.20;;;;;;;1.24;80.11;97314.84;4967401;28;20051;-63
2024/02/02 04:55:15;;;;;;;0.20;0.20;;;;;;;1.33;79.16;97296.63;4965844;28;20058;-62
2024/02/02 04:57:42;;;;;;;0.20;0.20;;;;;;;1.29;79.86;97311.19;4967397;28;20051;-61
2024/02/02 05:00:09;;;;;;;0.30;0.30;;;;;;;0.81;79.47;97218.06;4966606;28;20058;-61
2024/02/02 05:02:37;;;;;;;0.20;0.20;;;;;;;1.02;79.79;97238.38;4967276;28;20126;-62
2024/02/02 05:05:05;;;;;;;0.20;0.20;;;;;;;0.96;80.48;97290.59;4966999;28;20058;-62
2024/02/02 05:07:33;;;;;;;0.30;0.30;;;;;;;1.07;80.70;97226.53;4966955;28;20051;-62
2024/02/02 05:09:59;;;;;;;0.20;0.20;;;;;;;1.58;80.41;97320.66;4966616;28;20086;-62
2024/02/02 05:12:27;;;;;;;0.20;0.20;;;;;;;1.72;81.61;97319.81;4967097;28;20061;-63
2024/02/02 05:14:54;;;;;;;0.30;0.30;;;;;;;1.39;80.87;97259.94;4967070;28;20059;-62
2024/02/02 05:17:21;;;;;;;0.20;0.20;;;;;;;1.85;80.97;97308.84;4971781;28;20088;-60
2024/02/02 05:19:48;;;;;;;0.25;0.25;;;;;;;1.35;81.14;97256.22;4920070;28;1383933;-60
2024/02/02 05:22:15;;;;;;;0.20;0.20;;;;;;;1.77;82.24;97327.91;4968071;28;20058;-61
2024/02/02 05:24:42;;;;;;;0.20;0.20;;;;;;;1.88;81.89;97319.16;4967685;28;20050;-64
2024/02/02 05:27:12;;;;;;;0.20;0.20;;;;;;;1.97;81.88;97316.50;4968135;28;20051;-62
2024/02/02 05:29:39;;;;;;;0.20;0.20;;;;;;;1.61;81.49;97258.38;4985273;28;20734;-63
2024/02/02 05:32:06;;;;;;;0.30;0.30;;;;;;;2.09;81.36;97292.16;4987647;28;20058;-62
2024/02/02 05:34:33;;;;;;;0.20;0.20;;;;;;;2.29;80.80;97319.03;4985720;28;20401;-63
2024/02/02 05:37:01;;;;;;;0.20;0.20;;;;;;;2.32;82.45;97329.31;4985570;28;20133;-64
2024/02/02 05:39:27;;;;;;;0.20;0.20;;;;;;;2.12;84.69;97329.81;4986351;28;20054;-63
2024/02/02 05:41:57;;;;;;;0.30;0.30;;;;;;;2.11;83.91;97311.81;4978865;28;20428;-63
2024/02/02 05:44:24;;;;;;;0.20;0.20;;;;;;;2.13;82.69;97304.94;4993117;28;20153;-61
2024/02/02 05:46:50;;;;;;;0.20;0.20;;;;;;;2.33;82.77;97330.94;4985053;28;20137;-64
2024/02/02 05:49:17;;;;;;;0.20;0.20;;;;;;;2.53;82.21;97333.97;4986861;28;20050;-63
2024/02/02 05:51:44;;;;;;;0.20;0.20;;;;;;;2.78;82.01;97333.31;4986455;28;20061;-61
2024/02/02 05:54:11;;;;;;;0.20;0.20;;;;;;;2.91;81.54;97348.03;4986931;28;20061;-61
2024/02/02 05:56:39;;;;;;;0.20;0.20;;;;;;;3.05;81.14;97354.25;4986521;28;20085;-63
2024/02/02 05:59:06;;;;;;;0.28;0.28;;;;;;;2.89;81.08;97312.00;4987253;28;20085;-63
2024/02/02 06:01:32;;;;;;;0.20;0.20;;;;;;;3.05;81.21;97341.34;4986585;28;20448;-63
2024/02/02 06:03:59;;;;;;;0.28;0.28;;;;;;;3.37;82.08;97337.47;4986839;28;20054;-63
2024/02/02 06:06:26;;;;;;;0.30;0.30;;;;;;;3.53;80.19;97349.59;4986591;28;20054;-64
2024/02/02 06:08:53;;;;;;;0.20;0.20;;;;;;;3.75;80.22;97360.44;4987173;28;20077;-62
2024/02/02 06:11:25;;;;;;;0.20;0.20;;;;;;;3.90;79.70;97338.09;4985645;28;20577;-61
2024/02/02 06:13:55;;;;;;;0.20;0.20;;;;;;;4.06;79.95;97341.97;4986460;28;20138;-65
2024/02/02 06:16:24;;;;;;;0.20;0.20;;;;;;;4.25;80.20;97345.19;4986421;28;20110;-64
2024/02/02 06:18:51;;;;;;;0.30;0.30;;;;;;;4.12;79.67;97272.19;4984606;28;20054;-62
2024/02/02 06:21:18;;;;;;;0.30;0.30;;;;;;;4.63;78.60;97320.66;4986465;28;20757;-61
2024/02/02 06:23:44;;;;;;;0.30;0.30;;;;;;;5.04;77.28;97344.78;4986081;28;20576;-63
2024/02/02 06:26:11;;;;;;;0.30;0.30;;;;;;;5.25;75.89;97362.19;4986071;28;20056;-62
2024/02/02 06:28:38;;;;;;;0.22;0.22;;;;;;;5.40;74.84;97386.34;4986227;28;20873;-62
2024/02/02 06:31:05;;;;;;;0.30;0.30;;;;;;;5.53;74.33;97366.09;4985793;28;20498;-63
2024/02/02 06:33:31;;;;;;;0.30;0.30;;;;;;;5.60;73.79;97399.34;4986008;28;20058;-62
2024/02/02 06:35:58;;;;;;;0.30;0.30;;;;;;;5.62;73.12;97369.59;4985849;28;20050;-63
2024/02/02 06:38:25;;;;;;;0.30;0.30;;;;;;;5.87;73.29;97380.50;4985995;28;20140;-61
2024/02/02 06:40:52;;;;;;;0.30;0.30;;;;;;;5.88;72.69;97386.81;4983667;28;20054;-60
2024/02/02 06:43:19;;;;;;;0.30;0.30;;;;;;;3.37;71.84;96973.38;4984983;28;20046;-61
2024/02/02 06:45:45;;;;;;;0.32;0.32;;;;;;;6.17;71.51;97389.53;4985465;28;20157;-68
2024/02/02 06:48:15;;;;;;;0.30;0.30;;;;;;;6.02;70.92;97348.88;4985743;28;20061;-60
2024/02/02 06:50:44;;;;;;;0.30;0.30;;;;;;;6.37;70.88;97382.47;4968282;28;20053;-61
2024/02/02 06:53:10;;;;;;;0.30;0.30;;;;;;;6.04;69.96;97319.09;4965869;28;20050;-66
2024/02/02 06:55:37;;;;;;;0.30;0.30;;;;;;;6.49;69.05;97388.03;4965609;28;20511;-64
2024/02/02 06:58:10;;;;;;;0.40;0.40;;;;;;;6.54;69.30;97399.66;4966019;28;20063;-64
2024/02/02 07:00:38;;;;;;;0.30;0.30;;;;;;;5.99;69.13;97333.84;4965576;28;20055;-68
2024/02/02 07:03:06;;;;;;;0.30;0.30;;;;;;;5.91;69.75;97340.19;4965336;28;20587;-60
2024/02/02 07:05:33;;;;;;;0.30;0.30;;;;;;;6.21;70.79;97401.50;4965297;28;20053;-62
2024/02/02 07:07:59;;;;;;;0.32;0.32;;;;;;;6.34;70.52;97402.38;4965612;28;20535;-61
2024/02/02 07:10:26;;;;;;;0.30;0.30;;;;;;;6.48;69.88;97400.97;4965356;28;20429;-69
2024/02/02 07:12:57;;;;;;;0.30;0.30;;;;;;;5.82;69.43;97272.69;4965219;28;20061;-61
2024/02/02 07:15:38;;;;;;;0.40;0.40;;;;;;;6.27;69.20;97330.56;4964503;28;20142;-64
2024/02/02 07:18:23;;;;;;;0.30;0.30;;;;;;;6.90;68.63;97408.09;4964390;28;20054;-61
2024/02/02 07:21:04;;;;;;;0.30;0.30;;;;;;;7.09;68.18;97411.16;4963838;28;20054;-70
2024/02/02 07:23:36;;;;;;;0.40;0.40;;;;;;;6.83;68.91;97363.75;4964166;28;20051;-61
2024/02/02 07:26:06;;;;;;;0.30;0.30;;;;;;;7.01;68.05;97398.25;4963485;28;20051;-68
2024/02/02 07:28:36;;;;;;;0.35;0.35;;;;;;;6.75;69.08;97366.59;4961827;28;20058;-66
2024/02/02 07:31:08;;;;;;;0.40;0.40;;;;;;;6.69;68.78;97371.50;4963487;28;20569;-66
2024/02/02 07:33:44;;;;;;;0.30;0.30;;;;;;;7.22;67.22;97423.00;4963710;28;20073;-66
2024/02/02 07:36:29;;;;;;;0.30;0.30;;;;;;;7.50;66.38;97418.50;4965034;28;20125;-62
2024/02/02 07:38:56;;;;;;;0.40;0.40;;;;;;;6.40;66.24;97223.03;4964830;28;20047;-71
2024/02/02 07:41:28;;;;;;;0.30;0.30;;;;;;;7.68;66.13;97428.97;4964677;28;20062;-61
2024/02/02 07:43:59;;;;;;;0.40;0.40;;;;;;;7.86;64.74;97403.94;4964746;28;20055;-63
2024/02/02 07:46:26;;;;;;;0.40;0.40;;;;;;;7.70;64.79;97382.56;4965088;28;20109;-60
2024/02/02 07:48:54;;;;;;;0.40;0.40;;;;;;;7.28;64.94;97334.28;4963052;28;20429;-70
2024/02/02 07:51:24;;;;;;;0.30;0.30;;;;;;;7.68;65.46;97395.09;4964695;28;20513;-71
2024/02/02 07:53:52;;;;;;;0.30;0.30;;;;;;;7.52;66.23;97413.44;4964672;28;20054;-71
2024/02/02 07:56:22;;;;;;;0.40;0.40;;;;;;;7.80;65.77;97435.66;4977845;28;20480;-64
2024/02/02 07:58:49;;;;;;;0.40;0.40;;;;;;;7.76;66.29;97432.78;4983975;28;20168;-64
2024/02/02 08:01:17;;;;;;;0.30;0.30;;;;;;;7.81;66.64;97432.53;4983897;28;20086;-66
2024/02/02 08:03:43;;;;;;;0.40;0.40;;;;;;;7.74;66.79;97433.09;4983981;28;20058;-66
2024/02/02 08:06:12;;;;;;;0.40;0.40;;;;;;;7.54;68.64;97422.97;4983571;28;20096;-74
2024/02/02 08:08:39;;;;;;;0.40;0.40;;;;;;;7.11;69.28;97356.50;4984228;28;20101;-64
2024/02/02 08:11:06;;;;;;;0.40;0.40;;;;;;;7.44;71.25;97445.47;4983223;28;20137;-63
2024/02/02 08:13:33;;;;;;;0.30;0.30;;;;;;;7.19;72.67;97443.75;4983634;28;20046;-61
2024/02/02 08:16:00;;;;;;;0.30;0.30;;;;;;;4.84;71.03;97043.63;4983919;28;20488;-60
2024/02/02 08:18:27;;;;;;;0.32;0.32;;;;;;;6.79;71.22;97340.81;4983642;28;20047;-62
2024/02/02 08:20:55;;;;;;;0.40;0.40;;;;;;;7.61;70.21;97453.56;4983151;28;20053;-65
2024/02/02 08:23:22;;;;;;;0.40;0.40;;;;;;;7.40;69.60;97405.94;4983749;28;20473;-69
2024/02/02 08:25:49;;;;;;;0.40;0.40;;;;;;;6.97;69.18;97325.72;4983438;28;20093;-61
2024/02/02 08:28:15;;;;;;;0.40;0.40;;;;;;;6.85;68.71;97278.88;4983961;28;20058;-71
2024/02/02 08:30:42;;;;;;;0.40;0.40;;;;;;;7.97;68.36;97457.50;4983346;28;20084;-66
2024/02/02 08:33:13;;;;;;;0.40;0.40;;;;;;;7.65;67.55;97407.59;4978136;28;20069;-64
2024/02/02 08:35:41;;;;;;;0.40;0.40;;;;;;;8.04;66.89;97474.31;4981364;28;20428;-68
2024/02/02 08:38:11;;;;;;;0.40;0.40;;;;;;;7.98;66.46;97443.38;4982666;28;20054;-62
2024/02/02 08:40:43;;;;;;;0.40;0.40;;;;;;;7.55;65.48;97402.56;4981589;28;20066;-67
2024/02/02 08:43:19;;;;;;;0.40;0.40;;;;;;;7.26;67.20;97377.91;4981459;28;20058;-65
2024/02/02 08:46:09;;;;;;;0.40;0.40;;;;;;;7.85;67.95;97487.81;4983023;28;20141;-68
2024/02/02 08:48:40;;;;;;;0.40;0.40;;;;;;;7.60;68.82;97504.31;4978499;28;20058;-68
2024/02/02 08:51:22;;;;;;;0.40;0.40;;;;;;;7.78;69.05;97490.34;4964288;28;20169;-71
2024/02/02 08:54:02;;;;;;;0.38;0.38;;;;;;;8.09;67.89;97488.69;4964096;28;20058;-69
2024/02/02 08:56:29;;;;;;;0.40;0.40;;;;;;;7.76;66.23;97410.75;4965221;28;20073;-64
2024/02/02 08:58:57;;;;;;;0.45;0.45;;;;;;;7.89;65.72;97381.22;4973146;28;20039;-65
2024/02/02 09:01:39;;;;;;;0.40;0.40;;;;;;;8.93;64.37;97501.69;4978935;28;20054;-65
2024/02/02 09:04:22;;;;;;;0.40;0.40;;;;;;;8.87;63.67;97458.84;4969482;28;20164;-69
2024/02/02 09:06:49;;;;;;;0.40;0.40;;;;;;;9.40;63.37;97494.41;4977232;28;20532;-62
2024/02/02 09:09:17;;;;;;;0.40;0.40;;;;;;;9.59;62.99;97494.53;4985716;28;20061;-65
2024/02/02 09:11:49;;;;;;;0.40;0.40;;;;;;;9.76;63.27;97497.00;4987212;28;20046;-62
2024/02/02 09:14:19;;;;;;;0.40;0.40;;;;;;;9.88;63.51;97494.16;4986118;28;20064;-64
2024/02/02 09:16:49;;;;;;;0.43;0.43;;;;;;;10.09;62.56;97500.28;4983323;28;20560;-60
2024/02/02 09:19:27;;;;;;;0.50;0.50;;;;;;;9.60;61.83;97402.09;4978178;28;20137;-65
2024/02/02 09:22:01;;;;;;;0.50;0.50;;;;;;;10.44;62.26;97484.56;4981421;28;20148;-63
2024/02/02 09:24:40;;;;;;;0.50;0.50;;;;;;;10.37;59.94;97434.53;4984933;28;20194;-69
2024/02/02 09:27:29;;;;;;;0.50;0.50;;;;;;;10.92;60.37;97488.06;4984304;28;20068;-63
2024/02/02 09:29:56;;;;;;;0.50;0.50;;;;;;;10.80;58.50;97441.06;4986482;28;20058;-62
2024/02/02 09:32:23;;;;;;;0.50;0.50;;;;;;;10.84;59.48;97487.09;4986747;28;20050;-60
2024/02/02 09:34:51;;;;;;;0.50;0.50;;;;;;;10.67;59.57;97504.09;4985703;28;20054;-64
2024/02/02 09:37:29;;;;;;;0.50;0.50;;;;;;;8.59;60.22;97184.66;4975674;28;20050;-65
2024/02/02 09:39:57;;;;;;;0.40;0.40;;;;;;;10.11;60.63;97452.88;4976458;28;20042;-63
2024/02/02 09:42:29;;;;;;;0.50;0.50;;;;;;;10.38;61.28;97502.63;4974107;28;20575;-63
2024/02/02 09:45:00;;;;;;;0.50;0.50;;;;;;;9.88;62.03;97455.41;4998258;28;20065;-62
2024/02/02 09:47:43;;;;;;;0.50;0.50;;;;;;;10.19;61.87;97510.03;4986036;28;20085;-61
2024/02/02 09:50:36;;;;;;;0.50;0.50;;;;;;;9.47;58.11;97505.63;4985886;28;20414;-61
2024/02/02 09:53:18;;;;;;;0.40;0.40;;;;;;;9.51;55.24;97495.50;4985987;28;20373;-60
2024/02/02 09:56:11;;;;;;;0.40;0.40;;;;;;;9.63;55.88;97481.59;4967234;28;20093;-61
2024/02/02 09:58:54;;;;;;;0.50;0.50;;;;;;;9.84;55.32;97496.03;4978916;28;20061;-58
2024/02/02 10:01:36;;;;;;;0.50;0.50;;;;;;;9.60;55.78;97498.91;4983563;28;20100;-62
2024/02/02 10:04:21;;;;;;;0.40;0.40;;;;;;;9.64;55.93;97497.03;4985322;28;20058;-59
2024/02/02 10:07:07;;;;;;;0.40;0.40;;;;;;;9.51;55.74;97501.03;4984571;28;20054;-61
2024/02/02 10:10:15;;;;;;;0.40;0.40;;;;;;;9.42;55.20;97497.59;4985626;28;20046;-62
2024/02/02 10:13:12;;;;;;;0.40;0.40;;;;;;;8.86;56.23;97441.50;4983758;28;20138;-61
2024/02/02 10:15:38;;;;;;;0.40;0.40;;;;;;;9.20;57.20;97521.06;4966337;28;20104;-59
2024/02/02 10:18:23;;;;;;;0.40;0.40;;;;;;;9.15;57.41;97496.41;4979197;28;20050;-59
2024/02/02 10:21:32;;;;;;;0.40;0.40;;;;;;;9.36;57.42;97496.25;4985261;28;20587;-60
2024/02/02 10:24:25;;;;;;;0.40;0.40;;;;;;;9.02;57.15;97444.31;4982882;28;20054;-61
2024/02/02 10:27:10;;;;;;;0.40;0.40;;;;;;;9.15;57.54;97487.34;4985576;28;20053;-62
2024/02/02 10:29:54;;;;;;;0.40;0.40;;;;;;;9.11;56.89;97489.19;4981089;28;20065;-58
2024/02/02 10:32:40;;;;;;;0.40;0.40;;;;;;;9.21;57.32;97502.53;4985625;28;20081;-59
2024/02/02 10:35:19;;;;;;;0.40;0.40;;;;;;;9.38;56.64;97496.69;4966237;28;20219;-60
2024/02/02 10:37:50;;;;;;;0.40;0.40;;;;;;;9.16;56.42;97428.97;4967120;28;20162;-61
2024/02/02 10:40:30;;;;;;;0.50;0.50;;;;;;;9.88;56.50;97466.47;4977950;28;20053;-61
2024/02/02 10:43:23;;;;;;;0.40;0.40;;;;;;;10.29;54.48;97471.53;4983388;28;20146;-63
2024/02/02 10:46:28;;;;;;;0.40;0.40;;;;;;;10.55;54.95;97474.56;4985581;28;20614;-61
2024/02/02 10:49:27;;;;;;;0.50;0.50;;;;;;;10.09;53.73;97414.47;4983562;28;20054;-63
2024/02/02 10:52:21;;;;;;;0.50;0.50;;;;;;;10.39;53.90;97476.53;4983593;28;20050;-62
2024/02/02 10:55:03;;;;;;;0.40;0.40;;;;;;;9.51;55.30;97478.91;4984657;28;20505;-64
2024/02/02 10:57:41;;;;;;;0.50;0.50;;;;;;;9.97;54.05;97475.44;4985503;28;20133;-65
2024/02/02 11:00:16;;;;;;;0.50;0.50;;;;;;;9.84;54.39;97476.66;4985144;28;20081;-60
2024/02/02 11:03:07;;;;;;;0.40;0.40;;;;;;;9.87;53.68;97370.81;4985358;28;20406;-65
2024/02/02 11:05:44;;;;;;;0.50;0.50;;;;;;;11.13;51.29;97483.00;4985405;28;20121;-64
2024/02/02 11:08:33;;;;;;;0.50;0.50;;;;;;;11.21;51.34;97468.09;4985517;28;20137;-64
2024/02/02 11:11:05;;;;;;;0.50;0.50;;;;;;;11.69;51.01;97473.09;4983623;28;20090;-61
2024/02/02 11:13:59;;;;;;;0.50;0.50;;;;;;;11.44;50.12;97405.19;4984745;28;20057;-63
2024/02/02 11:17:07;;;;;;;0.50;0.50;;;;;;;11.84;50.05;97480.50;4985075;28;20058;-61
2024/02/02 11:19:46;;;;;;;0.50;0.50;;;;;;;11.64;50.89;97484.47;4984303;28;20069;-64
2024/02/02 11:22:37;;;;;;;0.50;0.50;;;;;;;11.36;51.17;97443.09;4984642;28;20090;-62
2024/02/02 11:25:06;;;;;;;0.50;0.50;;;;;;;11.52;51.65;97473.50;4983997;28;20050;-62
2024/02/02 11:28:02;;;;;;;0.52;0.52;;;;;;;11.42;51.24;97474.09;4984337;28;20054;-63
2024/02/02 11:30:56;;;;;;;0.50;0.50;;;;;;;11.38;51.37;97473.22;4984298;28;20056;-60
2024/02/02 11:33:29;;;;;;;;;;;;;;;11.09;51.67;97469.06;4985113;28;20058;-60
2024/02/02 11:36:02;;;;;;;0.40;0.40;;;;;;;10.75;52.21;97466.28;4983021;28;20115;-64
2024/02/02 11:38:48;;;;;;;0.43;0.43;;;;;;;10.92;52.56;97465.88;4983000;28;20066;-64
2024/02/02 11:41:18;;;;;;;0.50;0.50;;;;;;;10.91;51.94;97476.16;4984493;28;20058;-64
2024/02/02 11:43:46;;;;;;;0.50;0.50;;;;;;;10.04;52.19;97375.16;4984297;28;20054;-64
2024/02/02 11:46:14;;;;;;;0.50;0.50;;;;;;;10.49;52.28;97420.59;4984691;28;20469;-61
2024/02/02 11:48:43;;;;;;;0.50;0.50;;;;;;;10.86;52.40;97468.13;4984713;28;20050;-62
2024/02/02 11:51:11;;;;;;;0.50;0.50;;;;;;;10.78;52.46;97448.94;4984120;28;20462;-61
2024/02/02 11:53:53;;;;;;;0.50;0.50;;;;;;;10.66;52.98;97458.97;4982821;28;20527;-61
2024/02/02 11:56:42;;;;;;;0.50;0.50;;;;;;;10.45;53.48;97447.41;4983015;28;20064;-63
2024/02/02 11:59:20;;;;;;;0.50;0.50;;;;;;;10.46;53.68;97465.59;4984383;28;20540;-62